sensor_id;sensor_type;location;lat;lon;timestamp;pressure;altitude;pressure_sealevel;temperature;humidity
73501;BME280;61721;42.206;25.320;2023-11-22T00:02:21;98948.94;;;11.65;56.28
73501;BME280;61721;42.206;25.320;2023-11-22T00:04:48;98959.28;;;11.62;55.92
73501;BME280;61721;42.206;25.320;2023-11-22T00:07:16;98947.88;;;11.45;56.36
73501;BME280;61721;42.206;25.320;2023-11-22T00:09:43;98937.38;;;11.06;57.29
73501;BME280;61721;42.206;25.320;2023-11-22T00:12:12;98932.22;;;11.55;56.26
73501;BME280;61721;42.206;25.320;2023-11-22T00:14:40;98934.06;;;11.69;55.76
73501;BME280;61721;42.206;25.320;2023-11-22T00:17:07;98929.75;;;11.24;56.75
73501;BME280;61721;42.206;25.320;2023-11-22T00:19:41;98931.47;;;11.61;56.25
73501;BME280;61721;42.206;25.320;2023-11-22T00:22:08;98940.91;;;11.36;56.50
73501;BME280;61721;42.206;25.320;2023-11-22T00:24:39;98941.97;;;11.71;55.20
73501;BME280;61721;42.206;25.320;2023-11-22T00:27:06;98938.63;;;11.69;55.33
73501;BME280;61721;42.206;25.320;2023-11-22T00:29:34;98936.09;;;11.82;54.82
73501;BME280;61721;42.206;25.320;2023-11-22T00:32:03;98932.06;;;11.27;55.81
73501;BME280;61721;42.206;25.320;2023-11-22T00:34:31;98929.09;;;11.07;56.53
73501;BME280;61721;42.206;25.320;2023-11-22T00:36:58;98925.00;;;10.82;57.52
73501;BME280;61721;42.206;25.320;2023-11-22T00:39:25;98936.41;;;10.69;57.99
73501;BME280;61721;42.206;25.320;2023-11-22T00:41:52;98941.63;;;10.71;58.34
73501;BME280;61721;42.206;25.320;2023-11-22T00:44:21;98951.50;;;11.37;56.55
73501;BME280;61721;42.206;25.320;2023-11-22T00:46:48;98945.53;;;10.98;56.96
73501;BME280;61721;42.206;25.320;2023-11-22T00:49:17;98931.50;;;10.73;58.16
73501;BME280;61721;42.206;25.320;2023-11-22T00:51:44;98941.00;;;10.98;57.73
73501;BME280;61721;42.206;25.320;2023-11-22T00:54:13;98944.44;;;11.36;56.87
73501;BME280;61721;42.206;25.320;2023-11-22T00:56:41;98932.81;;;11.36;56.69
73501;BME280;61721;42.206;25.320;2023-11-22T00:59:08;98933.63;;;11.51;56.70
73501;BME280;61721;42.206;25.320;2023-11-22T01:01:35;98945.88;;;11.83;55.68
73501;BME280;61721;42.206;25.320;2023-11-22T01:04:03;98953.88;;;11.62;56.13
73501;BME280;61721;42.206;25.320;2023-11-22T01:06:34;98950.94;;;11.27;57.31
73501;BME280;61721;42.206;25.320;2023-11-22T01:09:02;98937.91;;;10.72;59.48
73501;BME280;61721;42.206;25.320;2023-11-22T01:11:31;98940.19;;;10.60;59.74
73501;BME280;61721;42.206;25.320;2023-11-22T01:13:58;98935.63;;;10.46;60.76
73501;BME280;61721;42.206;25.320;2023-11-22T01:16:26;98932.22;;;11.55;57.67
73501;BME280;61721;42.206;25.320;2023-11-22T01:18:53;98933.53;;;11.59;57.21
73501;BME280;61721;42.206;25.320;2023-11-22T01:21:20;98928.16;;;11.95;56.34
73501;BME280;61721;42.206;25.320;2023-11-22T01:23:49;98922.88;;;11.36;57.87
73501;BME280;61721;42.206;25.320;2023-11-22T01:26:17;98920.84;;;11.24;58.49
73501;BME280;61721;42.206;25.320;2023-11-22T01:28:44;98922.75;;;11.45;57.99
73501;BME280;61721;42.206;25.320;2023-11-22T01:31:12;98925.78;;;11.71;57.59
73501;BME280;61721;42.206;25.320;2023-11-22T01:33:40;98921.09;;;11.44;57.68
73501;BME280;61721;42.206;25.320;2023-11-22T01:36:08;98924.22;;;11.62;58.10
73501;BME280;61721;42.206;25.320;2023-11-22T01:38:36;98920.56;;;11.19;58.94
73501;BME280;61721;42.206;25.320;2023-11-22T01:41:06;98932.25;;;10.44;61.39
73501;BME280;61721;42.206;25.320;2023-11-22T01:43:34;98935.31;;;10.41;62.39
73501;BME280;61721;42.206;25.320;2023-11-22T01:46:01;98926.09;;;10.73;62.16
73501;BME280;61721;42.206;25.320;2023-11-22T01:48:29;98921.91;;;11.59;59.38
73501;BME280;61721;42.206;25.320;2023-11-22T01:50:57;98919.41;;;11.57;58.80
73501;BME280;61721;42.206;25.320;2023-11-22T01:53:25;98901.25;;;11.00;60.68
73501;BME280;61721;42.206;25.320;2023-11-22T01:55:52;98915.72;;;10.99;60.63
73501;BME280;61721;42.206;25.320;2023-11-22T01:58:22;98916.00;;;11.19;60.13
73501;BME280;61721;42.206;25.320;2023-11-22T02:00:50;98898.63;;;11.07;60.62
73501;BME280;61721;42.206;25.320;2023-11-22T02:03:18;98903.88;;;11.59;58.82
73501;BME280;61721;42.206;25.320;2023-11-22T02:05:46;98898.50;;;11.45;58.84
73501;BME280;61721;42.206;25.320;2023-11-22T02:08:15;98903.72;;;11.31;58.93
73501;BME280;61721;42.206;25.320;2023-11-22T02:10:44;98910.78;;;11.32;58.84
73501;BME280;61721;42.206;25.320;2023-11-22T02:13:15;98922.03;;;11.06;59.58
73501;BME280;61721;42.206;25.320;2023-11-22T02:15:43;98924.19;;;11.11;60.06
73501;BME280;61721;42.206;25.320;2023-11-22T02:18:12;98929.28;;;11.35;59.12
73501;BME280;61721;42.206;25.320;2023-11-22T02:20:40;98924.72;;;10.92;59.80
73501;BME280;61721;42.206;25.320;2023-11-22T02:23:10;98918.25;;;11.01;59.91
73501;BME280;61721;42.206;25.320;2023-11-22T02:25:37;98913.56;;;10.65;60.85
73501;BME280;61721;42.206;25.320;2023-11-22T02:28:05;98895.19;;;10.84;60.44
73501;BME280;61721;42.206;25.320;2023-11-22T02:30:34;98895.72;;;10.35;61.47
73501;BME280;61721;42.206;25.320;2023-11-22T02:33:01;98890.09;;;10.74;61.27
73501;BME280;61721;42.206;25.320;2023-11-22T02:35:29;98872.06;;;11.19;59.47
73501;BME280;61721;42.206;25.320;2023-11-22T02:37:57;98875.28;;;11.44;59.03
73501;BME280;61721;42.206;25.320;2023-11-22T02:40:26;98877.47;;;11.55;58.63
73501;BME280;61721;42.206;25.320;2023-11-22T02:42:54;98866.41;;;10.99;59.80
73501;BME280;61721;42.206;25.320;2023-11-22T02:45:27;98853.50;;;10.65;61.29
73501;BME280;61721;42.206;25.320;2023-11-22T02:47:55;98854.78;;;10.69;61.89
73501;BME280;61721;42.206;25.320;2023-11-22T02:50:23;98856.06;;;11.32;59.96
73501;BME280;61721;42.206;25.320;2023-11-22T02:52:51;98858.56;;;11.33;59.62
73501;BME280;61721;42.206;25.320;2023-11-22T02:55:18;98850.28;;;11.71;58.49
73501;BME280;61721;42.206;25.320;2023-11-22T02:57:47;98848.13;;;11.81;58.07
73501;BME280;61721;42.206;25.320;2023-11-22T03:00:15;98861.25;;;11.69;58.30
73501;BME280;61721;42.206;25.320;2023-11-22T03:02:45;98874.97;;;11.89;58.13
73501;BME280;61721;42.206;25.320;2023-11-22T03:05:12;98889.75;;;12.15;57.18
73501;BME280;61721;42.206;25.320;2023-11-22T03:07:40;98882.84;;;10.89;60.45
73501;BME280;61721;42.206;25.320;2023-11-22T03:10:08;98881.81;;;10.76;61.17
73501;BME280;61721;42.206;25.320;2023-11-22T03:12:36;98891.94;;;11.03;60.90
73501;BME280;61721;42.206;25.320;2023-11-22T03:15:06;98888.69;;;10.63;62.10
73501;BME280;61721;42.206;25.320;2023-11-22T03:17:33;98894.50;;;10.52;62.73
73501;BME280;61721;42.206;25.320;2023-11-22T03:20:01;98901.22;;;11.15;60.79
73501;BME280;61721;42.206;25.320;2023-11-22T03:22:28;98917.00;;;10.59;62.27
73501;BME280;61721;42.206;25.320;2023-11-22T03:24:57;98933.84;;;10.91;61.61
73501;BME280;61721;42.206;25.320;2023-11-22T03:27:24;98931.22;;;10.83;61.52
73501;BME280;61721;42.206;25.320;2023-11-22T03:29:51;98931.78;;;10.78;61.35
73501;BME280;61721;42.206;25.320;2023-11-22T03:32:20;98907.25;;;10.58;62.55
73501;BME280;61721;42.206;25.320;2023-11-22T03:34:48;98899.63;;;11.35;60.40
73501;BME280;61721;42.206;25.320;2023-11-22T03:37:15;98891.84;;;11.11;60.40
73501;BME280;61721;42.206;25.320;2023-11-22T03:39:43;98892.19;;;11.37;59.84
73501;BME280;61721;42.206;25.320;2023-11-22T03:42:14;98887.66;;;11.09;60.62
73501;BME280;61721;42.206;25.320;2023-11-22T03:44:42;98904.94;;;11.29;60.48
73501;BME280;61721;42.206;25.320;2023-11-22T03:47:10;98904.88;;;11.58;59.37
73501;BME280;61721;42.206;25.320;2023-11-22T03:49:41;98894.06;;;11.73;59.27
73501;BME280;61721;42.206;25.320;2023-11-22T03:52:10;98884.16;;;11.59;58.25
73501;BME280;61721;42.206;25.320;2023-11-22T03:54:38;98870.78;;;11.00;59.37
73501;BME280;61721;42.206;25.320;2023-11-22T03:57:05;98872.44;;;10.86;60.28
73501;BME280;61721;42.206;25.320;2023-11-22T03:59:34;98882.38;;;10.86;60.15
73501;BME280;61721;42.206;25.320;2023-11-22T04:02:02;98872.53;;;10.63;60.79
73501;BME280;61721;42.206;25.320;2023-11-22T04:04:29;98876.44;;;10.76;61.47
73501;BME280;61721;42.206;25.320;2023-11-22T04:06:58;98886.44;;;11.41;59.14
73501;BME280;61721;42.206;25.320;2023-11-22T04:09:26;98896.66;;;11.30;59.69
73501;BME280;61721;42.206;25.320;2023-11-22T04:11:53;98905.03;;;11.06;60.30
73501;BME280;61721;42.206;25.320;2023-11-22T04:14:20;98919.53;;;10.76;61.95
73501;BME280;61721;42.206;25.320;2023-11-22T04:16:47;98919.25;;;10.10;64.13
73501;BME280;61721;42.206;25.320;2023-11-22T04:19:15;98928.09;;;10.19;64.52
73501;BME280;61721;42.206;25.320;2023-11-22T04:21:42;98924.38;;;11.24;61.65
73501;BME280;61721;42.206;25.320;2023-11-22T04:24:11;98923.72;;;11.22;61.13
73501;BME280;61721;42.206;25.320;2023-11-22T04:26:39;98927.53;;;11.13;61.43
73501;BME280;61721;42.206;25.320;2023-11-22T04:29:15;98938.50;;;10.97;61.97
73501;BME280;61721;42.206;25.320;2023-11-22T04:31:43;98935.88;;;11.18;61.69
73501;BME280;61721;42.206;25.320;2023-11-22T04:34:10;98940.25;;;11.04;62.26
73501;BME280;61721;42.206;25.320;2023-11-22T04:36:37;98940.63;;;11.16;61.88
73501;BME280;61721;42.206;25.320;2023-11-22T04:39:05;98943.59;;;11.06;61.79
73501;BME280;61721;42.206;25.320;2023-11-22T04:41:37;98938.31;;;11.13;61.90
73501;BME280;61721;42.206;25.320;2023-11-22T04:44:04;98940.63;;;11.46;60.67
73501;BME280;61721;42.206;25.320;2023-11-22T04:46:32;98946.09;;;11.37;61.03
73501;BME280;61721;42.206;25.320;2023-11-22T04:48:59;98939.69;;;11.38;61.32
73501;BME280;61721;42.206;25.320;2023-11-22T04:51:26;98934.75;;;11.57;60.74
73501;BME280;61721;42.206;25.320;2023-11-22T04:53:55;98931.66;;;11.60;60.23
73501;BME280;61721;42.206;25.320;2023-11-22T04:56:22;98928.09;;;10.94;62.18
73501;BME280;61721;42.206;25.320;2023-11-22T04:58:51;98925.25;;;10.58;63.62
73501;BME280;61721;42.206;25.320;2023-11-22T05:01:18;98929.78;;;10.57;63.87
73501;BME280;61721;42.206;25.320;2023-11-22T05:03:45;98922.31;;;10.97;63.38
73501;BME280;61721;42.206;25.320;2023-11-22T05:06:12;98923.63;;;11.30;62.31
73501;BME280;61721;42.206;25.320;2023-11-22T05:08:41;98935.03;;;11.47;61.49
73501;BME280;61721;42.206;25.320;2023-11-22T05:11:08;98942.22;;;11.25;62.80
73501;BME280;61721;42.206;25.320;2023-11-22T05:13:36;98942.56;;;11.52;62.37
73501;BME280;61721;42.206;25.320;2023-11-22T05:16:05;98955.78;;;11.97;60.82
73501;BME280;61721;42.206;25.320;2023-11-22T05:18:40;98960.63;;;12.02;60.77
73501;BME280;61721;42.206;25.320;2023-11-22T05:21:07;98967.50;;;12.05;60.06
73501;BME280;61721;42.206;25.320;2023-11-22T05:23:36;98980.34;;;12.02;60.27
73501;BME280;61721;42.206;25.320;2023-11-22T05:26:10;98977.88;;;11.86;60.99
73501;BME280;61721;42.206;25.320;2023-11-22T05:28:37;98976.81;;;12.23;60.15
73501;BME280;61721;42.206;25.320;2023-11-22T05:31:06;98981.06;;;12.11;60.46
73501;BME280;61721;42.206;25.320;2023-11-22T05:33:33;98987.25;;;11.61;62.25
73501;BME280;61721;42.206;25.320;2023-11-22T05:36:01;98986.16;;;11.55;62.32
73501;BME280;61721;42.206;25.320;2023-11-22T05:38:28;98990.53;;;11.12;62.37
73501;BME280;61721;42.206;25.320;2023-11-22T05:40:56;98994.03;;;10.98;63.57
73501;BME280;61721;42.206;25.320;2023-11-22T05:43:23;98987.34;;;10.94;64.06
73501;BME280;61721;42.206;25.320;2023-11-22T05:45:52;98985.66;;;10.93;64.28
73501;BME280;61721;42.206;25.320;2023-11-22T05:48:21;98987.28;;;11.46;63.01
73501;BME280;61721;42.206;25.320;2023-11-22T05:50:49;98999.44;;;11.57;62.74
73501;BME280;61721;42.206;25.320;2023-11-22T05:53:16;98992.28;;;11.93;61.47
73501;BME280;61721;42.206;25.320;2023-11-22T05:55:45;99002.44;;;12.13;60.49
73501;BME280;61721;42.206;25.320;2023-11-22T05:58:13;98998.09;;;12.12;60.12
73501;BME280;61721;42.206;25.320;2023-11-22T06:00:42;99004.28;;;11.47;62.28
73501;BME280;61721;42.206;25.320;2023-11-22T06:03:10;99004.75;;;11.35;62.63
73501;BME280;61721;42.206;25.320;2023-11-22T06:05:39;99009.50;;;11.63;62.05
73501;BME280;61721;42.206;25.320;2023-11-22T06:08:06;99012.81;;;11.21;62.85
73501;BME280;61721;42.206;25.320;2023-11-22T06:10:34;99015.72;;;11.34;62.94
73501;BME280;61721;42.206;25.320;2023-11-22T06:13:04;99017.56;;;11.19;63.45
73501;BME280;61721;42.206;25.320;2023-11-22T06:15:39;99015.16;;;11.68;62.55
73501;BME280;61721;42.206;25.320;2023-11-22T06:18:07;99013.13;;;11.85;62.19
73501;BME280;61721;42.206;25.320;2023-11-22T06:20:34;99026.84;;;12.05;61.49
73501;BME280;61721;42.206;25.320;2023-11-22T06:23:03;99037.88;;;12.24;61.07
73501;BME280;61721;42.206;25.320;2023-11-22T06:25:30;99043.72;;;11.62;61.84
73501;BME280;61721;42.206;25.320;2023-11-22T06:27:58;99048.63;;;11.59;62.08
73501;BME280;61721;42.206;25.320;2023-11-22T06:30:26;99062.22;;;11.51;61.61
73501;BME280;61721;42.206;25.320;2023-11-22T06:32:53;99069.59;;;10.82;63.49
73501;BME280;61721;42.206;25.320;2023-11-22T06:35:21;99084.00;;;10.43;64.66
73501;BME280;61721;42.206;25.320;2023-11-22T06:37:48;99080.59;;;10.95;64.69
73501;BME280;61721;42.206;25.320;2023-11-22T06:40:17;99096.22;;;10.77;64.96
73501;BME280;61721;42.206;25.320;2023-11-22T06:42:46;99091.38;;;10.49;65.77
73501;BME280;61721;42.206;25.320;2023-11-22T06:45:13;99084.31;;;10.94;64.32
73501;BME280;61721;42.206;25.320;2023-11-22T06:47:41;99093.13;;;11.25;64.15
73501;BME280;61721;42.206;25.320;2023-11-22T06:50:10;99106.84;;;10.47;65.26
73501;BME280;61721;42.206;25.320;2023-11-22T06:52:38;99110.34;;;10.79;65.37
73501;BME280;61721;42.206;25.320;2023-11-22T06:55:06;99130.00;;;10.33;66.08
73501;BME280;61721;42.206;25.320;2023-11-22T06:57:35;99153.38;;;9.86;68.00
73501;BME280;61721;42.206;25.320;2023-11-22T07:00:04;99124.56;;;10.41;67.45
73501;BME280;61721;42.206;25.320;2023-11-22T07:02:32;99124.38;;;10.43;65.91
73501;BME280;61721;42.206;25.320;2023-11-22T07:05:00;99131.69;;;10.57;66.06
73501;BME280;61721;42.206;25.320;2023-11-22T07:07:28;99123.38;;;11.13;64.73
73501;BME280;61721;42.206;25.320;2023-11-22T07:09:55;99121.53;;;11.13;63.51
73501;BME280;61721;42.206;25.320;2023-11-22T07:12:24;99111.59;;;10.91;65.16
73501;BME280;61721;42.206;25.320;2023-11-22T07:14:54;99110.44;;;11.31;64.40
73501;BME280;61721;42.206;25.320;2023-11-22T07:17:21;99100.41;;;11.39;64.31
73501;BME280;61721;42.206;25.320;2023-11-22T07:19:49;99111.06;;;11.33;65.00
73501;BME280;61721;42.206;25.320;2023-11-22T07:22:17;99110.47;;;11.75;63.23
73501;BME280;61721;42.206;25.320;2023-11-22T07:24:45;99100.25;;;11.70;62.72
73501;BME280;61721;42.206;25.320;2023-11-22T07:27:13;99103.44;;;11.22;64.92
73501;BME280;61721;42.206;25.320;2023-11-22T07:29:41;99111.72;;;11.87;62.81
73501;BME280;61721;42.206;25.320;2023-11-22T07:32:10;99120.41;;;11.60;63.22
73501;BME280;61721;42.206;25.320;2023-11-22T07:34:39;99125.81;;;11.60;64.16
73501;BME280;61721;42.206;25.320;2023-11-22T07:37:07;99125.00;;;11.74;63.74
73501;BME280;61721;42.206;25.320;2023-11-22T07:39:34;99118.88;;;12.10;62.67
73501;BME280;61721;42.206;25.320;2023-11-22T07:42:04;99127.34;;;11.77;63.22
73501;BME280;61721;42.206;25.320;2023-11-22T07:44:34;99125.59;;;11.99;62.25
73501;BME280;61721;42.206;25.320;2023-11-22T07:47:03;99133.03;;;11.97;62.71
73501;BME280;61721;42.206;25.320;2023-11-22T07:49:35;99126.31;;;12.08;62.08
73501;BME280;61721;42.206;25.320;2023-11-22T07:52:04;99134.28;;;11.71;63.67
73501;BME280;61721;42.206;25.320;2023-11-22T07:54:32;99133.72;;;11.76;63.13
73501;BME280;61721;42.206;25.320;2023-11-22T07:57:01;99125.91;;;11.52;64.70
73501;BME280;61721;42.206;25.320;2023-11-22T07:59:28;99149.16;;;11.67;64.84
73501;BME280;61721;42.206;25.320;2023-11-22T08:01:56;99148.13;;;11.16;65.46
73501;BME280;61721;42.206;25.320;2023-11-22T08:04:23;99152.56;;;11.09;66.89
73501;BME280;61721;42.206;25.320;2023-11-22T08:06:52;99155.88;;;11.34;66.40
73501;BME280;61721;42.206;25.320;2023-11-22T08:09:22;99148.03;;;11.62;65.67
73501;BME280;61721;42.206;25.320;2023-11-22T08:11:50;99140.69;;;11.56;65.21
73501;BME280;61721;42.206;25.320;2023-11-22T08:14:18;99137.38;;;11.31;66.51
73501;BME280;61721;42.206;25.320;2023-11-22T08:16:46;99128.00;;;11.42;66.28
73501;BME280;61721;42.206;25.320;2023-11-22T08:19:14;99123.75;;;11.47;66.69
73501;BME280;61721;42.206;25.320;2023-11-22T08:21:41;99112.53;;;11.21;67.45
73501;BME280;61721;42.206;25.320;2023-11-22T08:24:10;99100.47;;;11.98;65.57
73501;BME280;61721;42.206;25.320;2023-11-22T08:26:38;99105.09;;;12.05;65.46
73501;BME280;61721;42.206;25.320;2023-11-22T08:29:06;99122.31;;;12.18;64.73
73501;BME280;61721;42.206;25.320;2023-11-22T08:31:33;99131.72;;;12.22;64.65
73501;BME280;61721;42.206;25.320;2023-11-22T08:34:02;99152.63;;;11.38;67.46
73501;BME280;61721;42.206;25.320;2023-11-22T08:36:33;99155.16;;;11.40;68.98
73501;BME280;61721;42.206;25.320;2023-11-22T08:39:01;99160.38;;;11.79;67.98
73501;BME280;61721;42.206;25.320;2023-11-22T08:41:31;99152.19;;;11.87;66.78
73501;BME280;61721;42.206;25.320;2023-11-22T08:43:58;99152.38;;;12.00;67.44
73501;BME280;61721;42.206;25.320;2023-11-22T08:46:26;99169.28;;;11.42;68.40
73501;BME280;61721;42.206;25.320;2023-11-22T08:48:53;99160.94;;;11.14;69.62
73501;BME280;61721;42.206;25.320;2023-11-22T08:51:22;99156.81;;;11.41;69.50
73501;BME280;61721;42.206;25.320;2023-11-22T08:53:49;99151.16;;;11.13;70.07
73501;BME280;61721;42.206;25.320;2023-11-22T08:56:17;99150.25;;;11.58;68.53
73501;BME280;61721;42.206;25.320;2023-11-22T08:58:47;99149.84;;;11.09;70.10
73501;BME280;61721;42.206;25.320;2023-11-22T09:01:14;99145.47;;;11.31;70.28
73501;BME280;61721;42.206;25.320;2023-11-22T09:03:43;99153.22;;;11.49;70.27
73501;BME280;61721;42.206;25.320;2023-11-22T09:06:10;99158.78;;;11.10;72.13
73501;BME280;61721;42.206;25.320;2023-11-22T09:08:38;99160.56;;;10.94;72.30
73501;BME280;61721;42.206;25.320;2023-11-22T09:11:06;99138.66;;;11.73;70.39
73501;BME280;61721;42.206;25.320;2023-11-22T09:13:33;99133.69;;;11.84;69.62
73501;BME280;61721;42.206;25.320;2023-11-22T09:16:02;99143.91;;;11.89;69.49
73501;BME280;61721;42.206;25.320;2023-11-22T09:18:31;99151.81;;;11.90;69.87
73501;BME280;61721;42.206;25.320;2023-11-22T09:20:58;99154.16;;;11.93;69.42
73501;BME280;61721;42.206;25.320;2023-11-22T09:23:26;99150.25;;;12.11;69.14
73501;BME280;61721;42.206;25.320;2023-11-22T09:25:54;99156.78;;;12.52;67.14
73501;BME280;61721;42.206;25.320;2023-11-22T09:28:21;99152.84;;;12.70;66.44
73501;BME280;61721;42.206;25.320;2023-11-22T09:30:49;99139.31;;;12.33;67.45
73501;BME280;61721;42.206;25.320;2023-11-22T09:33:19;99146.91;;;12.59;67.28
73501;BME280;61721;42.206;25.320;2023-11-22T09:35:47;99138.56;;;12.76;66.67
73501;BME280;61721;42.206;25.320;2023-11-22T09:38:16;99133.56;;;12.73;66.81
73501;BME280;61721;42.206;25.320;2023-11-22T09:40:44;99134.16;;;12.89;66.76
73501;BME280;61721;42.206;25.320;2023-11-22T09:43:13;99132.22;;;12.83;66.91
73501;BME280;61721;42.206;25.320;2023-11-22T09:45:43;99123.84;;;12.99;66.27
73501;BME280;61721;42.206;25.320;2023-11-22T09:48:15;99128.16;;;12.94;66.87
73501;BME280;61721;42.206;25.320;2023-11-22T09:50:50;99129.31;;;12.85;67.39
73501;BME280;61721;42.206;25.320;2023-11-22T09:53:25;99125.94;;;12.61;68.36
73501;BME280;61721;42.206;25.320;2023-11-22T09:55:57;99120.25;;;12.92;67.97
73501;BME280;61721;42.206;25.320;2023-11-22T09:58:25;99127.63;;;13.26;66.89
73501;BME280;61721;42.206;25.320;2023-11-22T10:00:56;99136.25;;;13.15;66.51
73501;BME280;61721;42.206;25.320;2023-11-22T10:03:25;99124.53;;;12.65;69.19
73501;BME280;61721;42.206;25.320;2023-11-22T10:05:55;99128.03;;;12.81;69.21
73501;BME280;61721;42.206;25.320;2023-11-22T10:08:23;99138.53;;;12.54;70.22
73501;BME280;61721;42.206;25.320;2023-11-22T10:10:50;99138.03;;;12.65;69.90
73501;BME280;61721;42.206;25.320;2023-11-22T10:13:20;99127.06;;;12.01;73.12
73501;BME280;61721;42.206;25.320;2023-11-22T10:15:48;99136.28;;;11.92;73.49
73501;BME280;61721;42.206;25.320;2023-11-22T10:18:15;99125.66;;;12.20;72.59
73501;BME280;61721;42.206;25.320;2023-11-22T10:20:44;99134.22;;;12.24;72.54
73501;BME280;61721;42.206;25.320;2023-11-22T10:23:16;99132.44;;;12.67;71.74
73501;BME280;61721;42.206;25.320;2023-11-22T10:25:44;99131.13;;;12.99;70.57
73501;BME280;61721;42.206;25.320;2023-11-22T10:28:13;99123.28;;;12.83;70.71
73501;BME280;61721;42.206;25.320;2023-11-22T10:30:41;99129.41;;;12.55;71.83
73501;BME280;61721;42.206;25.320;2023-11-22T10:33:09;99131.53;;;12.24;73.22
73501;BME280;61721;42.206;25.320;2023-11-22T10:35:42;99132.22;;;12.47;73.50
73501;BME280;61721;42.206;25.320;2023-11-22T10:38:10;99132.69;;;13.15;70.48
73501;BME280;61721;42.206;25.320;2023-11-22T10:40:42;99133.34;;;13.38;69.70
73501;BME280;61721;42.206;25.320;2023-11-22T10:43:11;99141.28;;;13.40;69.25
73501;BME280;61721;42.206;25.320;2023-11-22T10:45:40;99138.09;;;13.57;68.74
73501;BME280;61721;42.206;25.320;2023-11-22T10:48:12;99141.53;;;13.23;69.73
73501;BME280;61721;42.206;25.320;2023-11-22T10:50:41;99141.97;;;12.63;72.23
73501;BME280;61721;42.206;25.320;2023-11-22T10:53:12;99142.09;;;12.40;73.93
73501;BME280;61721;42.206;25.320;2023-11-22T10:55:41;99141.66;;;12.37;74.36
73501;BME280;61721;42.206;25.320;2023-11-22T10:58:13;99150.16;;;12.70;73.93
73501;BME280;61721;42.206;25.320;2023-11-22T11:00:42;99149.22;;;12.62;73.17
73501;BME280;61721;42.206;25.320;2023-11-22T11:03:14;99148.34;;;12.77;74.05
73501;BME280;61721;42.206;25.320;2023-11-22T11:05:46;99141.41;;;12.67;73.91
73501;BME280;61721;42.206;25.320;2023-11-22T11:08:17;99142.03;;;12.33;76.01
73501;BME280;61721;42.206;25.320;2023-11-22T11:10:48;99142.25;;;12.53;75.93
73501;BME280;61721;42.206;25.320;2023-11-22T11:13:15;99140.63;;;12.74;74.89
73501;BME280;61721;42.206;25.320;2023-11-22T11:15:44;99142.97;;;13.19;72.48
73501;BME280;61721;42.206;25.320;2023-11-22T11:18:14;99142.09;;;13.40;72.14
73501;BME280;61721;42.206;25.320;2023-11-22T11:20:46;99146.59;;;13.54;71.82
73501;BME280;61721;42.206;25.320;2023-11-22T11:23:15;99149.91;;;13.28;72.45
73501;BME280;61721;42.206;25.320;2023-11-22T11:25:42;99164.53;;;13.62;71.25
73501;BME280;61721;42.206;25.320;2023-11-22T11:28:12;99157.25;;;13.35;71.16
73501;BME280;61721;42.206;25.320;2023-11-22T11:30:43;99154.78;;;13.40;72.08
73501;BME280;61721;42.206;25.320;2023-11-22T11:33:16;99143.03;;;13.26;72.02
73501;BME280;61721;42.206;25.320;2023-11-22T11:35:46;99147.38;;;13.76;70.92
73501;BME280;61721;42.206;25.320;2023-11-22T11:38:15;99149.41;;;14.02;69.09
73501;BME280;61721;42.206;25.320;2023-11-22T11:40:45;99155.19;;;13.92;69.61
73501;BME280;61721;42.206;25.320;2023-11-22T11:43:13;99158.75;;;14.34;68.35
73501;BME280;61721;42.206;25.320;2023-11-22T11:45:43;99152.47;;;13.37;71.22
73501;BME280;61721;42.206;25.320;2023-11-22T11:48:13;99149.13;;;13.35;71.90
73501;BME280;61721;42.206;25.320;2023-11-22T11:50:41;99158.63;;;13.52;71.34
73501;BME280;61721;42.206;25.320;2023-11-22T11:53:08;99156.09;;;13.22;72.03
73501;BME280;61721;42.206;25.320;2023-11-22T11:55:36;99167.34;;;13.75;71.06
73501;BME280;61721;42.206;25.320;2023-11-22T11:58:07;99174.09;;;13.37;72.57
73501;BME280;61721;42.206;25.320;2023-11-22T12:00:37;99169.72;;;13.36;72.41
73501;BME280;61721;42.206;25.320;2023-11-22T12:03:07;99178.22;;;13.54;71.99
73501;BME280;61721;42.206;25.320;2023-11-22T12:05:36;99175.84;;;13.23;73.72
73501;BME280;61721;42.206;25.320;2023-11-22T12:08:04;99177.19;;;12.91;74.03
73501;BME280;61721;42.206;25.320;2023-11-22T12:10:32;99178.47;;;12.95;74.17
73501;BME280;61721;42.206;25.320;2023-11-22T12:12:59;99187.66;;;13.92;71.85
73501;BME280;61721;42.206;25.320;2023-11-22T12:15:27;99182.00;;;13.87;70.86
73501;BME280;61721;42.206;25.320;2023-11-22T12:17:56;99186.72;;;13.29;72.94
73501;BME280;61721;42.206;25.320;2023-11-22T12:20:24;99182.22;;;13.37;72.96
73501;BME280;61721;42.206;25.320;2023-11-22T12:22:57;99184.50;;;13.61;72.09
73501;BME280;61721;42.206;25.320;2023-11-22T12:25:26;99181.81;;;13.89;71.63
73501;BME280;61721;42.206;25.320;2023-11-22T12:27:54;99188.63;;;14.13;71.36
73501;BME280;61721;42.206;25.320;2023-11-22T12:30:29;99189.63;;;14.40;69.68
73501;BME280;61721;42.206;25.320;2023-11-22T12:33:00;99192.47;;;14.25;70.69
73501;BME280;61721;42.206;25.320;2023-11-22T12:35:28;99192.09;;;13.72;71.67
73501;BME280;61721;42.206;25.320;2023-11-22T12:37:58;99188.97;;;14.38;70.05
73501;BME280;61721;42.206;25.320;2023-11-22T12:40:28;99190.19;;;14.63;69.09
73501;BME280;61721;42.206;25.320;2023-11-22T12:42:57;99189.38;;;14.69;68.32
73501;BME280;61721;42.206;25.320;2023-11-22T12:45:26;99189.25;;;14.43;68.28
73501;BME280;61721;42.206;25.320;2023-11-22T12:47:55;99185.66;;;14.77;67.57
73501;BME280;61721;42.206;25.320;2023-11-22T12:50:32;99185.66;;;14.77;67.64
73501;BME280;61721;42.206;25.320;2023-11-22T12:53:08;99188.72;;;14.60;68.88
73501;BME280;61721;42.206;25.320;2023-11-22T12:55:38;99186.72;;;14.07;70.04
73501;BME280;61721;42.206;25.320;2023-11-22T12:58:08;99177.16;;;13.76;72.00